sensor_id;sensor_type;location;lat;lon;timestamp;P1;durP1;ratioP1;P2;durP2;ratioP2
18445;SDS011;9352;50.888;4.466;2023-11-19T00:00:27;7.30;;;4.28;;
18445;SDS011;9352;50.888;4.466;2023-11-19T00:02:54;9.80;;;4.38;;
18445;SDS011;9352;50.888;4.466;2023-11-19T00:05:22;14.70;;;4.97;;
18445;SDS011;9352;50.888;4.466;2023-11-19T00:07:49;12.65;;;4.45;;
18445;SDS011;9352;50.888;4.466;2023-11-19T00:10:16;7.38;;;4.40;;
18445;SDS011;9352;50.888;4.466;2023-11-19T00:12:45;14.57;;;4.78;;
18445;SDS011;9352;50.888;4.466;2023-11-19T00:15:14;16.50;;;4.20;;
18445;SDS011;9352;50.888;4.466;2023-11-19T00:17:44;16.02;;;4.40;;
18445;SDS011;9352;50.888;4.466;2023-11-19T00:20:12;13.00;;;4.30;;
18445;SDS011;9352;50.888;4.466;2023-11-19T00:22:41;11.90;;;4.40;;
18445;SDS011;9352;50.888;4.466;2023-11-19T00:25:08;13.60;;;4.43;;
18445;SDS011;9352;50.888;4.466;2023-11-19T00:27:36;21.30;;;5.35;;
18445;SDS011;9352;50.888;4.466;2023-11-19T00:30:03;21.38;;;4.43;;
18445;SDS011;9352;50.888;4.466;2023-11-19T00:32:31;11.68;;;3.83;;
18445;SDS011;9352;50.888;4.466;2023-11-19T00:34:58;10.15;;;4.05;;
18445;SDS011;9352;50.888;4.466;2023-11-19T00:37:25;13.60;;;4.03;;
18445;SDS011;9352;50.888;4.466;2023-11-19T00:39:53;19.08;;;4.18;;
18445;SDS011;9352;50.888;4.466;2023-11-19T00:42:21;23.60;;;3.85;;
18445;SDS011;9352;50.888;4.466;2023-11-19T00:44:49;19.95;;;4.60;;
18445;SDS011;9352;50.888;4.466;2023-11-19T00:47:16;18.20;;;3.47;;
18445;SDS011;9352;50.888;4.466;2023-11-19T00:49:45;17.27;;;4.00;;
18445;SDS011;9352;50.888;4.466;2023-11-19T00:52:13;20.10;;;4.07;;
18445;SDS011;9352;50.888;4.466;2023-11-19T00:54:40;18.88;;;3.92;;
18445;SDS011;9352;50.888;4.466;2023-11-19T00:57:09;14.95;;;3.67;;
18445;SDS011;9352;50.888;4.466;2023-11-19T00:59:36;18.13;;;4.05;;
18445;SDS011;9352;50.888;4.466;2023-11-19T01:02:03;16.08;;;3.75;;
18445;SDS011;9352;50.888;4.466;2023-11-19T01:04:33;18.10;;;4.32;;
18445;SDS011;9352;50.888;4.466;2023-11-19T01:07:00;14.00;;;3.50;;
18445;SDS011;9352;50.888;4.466;2023-11-19T01:09:28;18.15;;;3.63;;
18445;SDS011;9352;50.888;4.466;2023-11-19T01:11:57;15.05;;;3.10;;
18445;SDS011;9352;50.888;4.466;2023-11-19T01:14:26;17.35;;;3.17;;
18445;SDS011;9352;50.888;4.466;2023-11-19T01:16:53;23.58;;;3.70;;
18445;SDS011;9352;50.888;4.466;2023-11-19T01:19:20;22.92;;;3.50;;
18445;SDS011;9352;50.888;4.466;2023-11-19T01:21:48;16.48;;;3.45;;
18445;SDS011;9352;50.888;4.466;2023-11-19T01:24:14;21.33;;;3.60;;
18445;SDS011;9352;50.888;4.466;2023-11-19T01:26:42;18.58;;;3.50;;
18445;SDS011;9352;50.888;4.466;2023-11-19T01:29:10;29.02;;;4.18;;
18445;SDS011;9352;50.888;4.466;2023-11-19T01:31:40;18.60;;;3.55;;
18445;SDS011;9352;50.888;4.466;2023-11-19T01:34:07;27.73;;;4.38;;
18445;SDS011;9352;50.888;4.466;2023-11-19T01:36:34;25.00;;;4.28;;
18445;SDS011;9352;50.888;4.466;2023-11-19T01:39:01;18.05;;;3.88;;
18445;SDS011;9352;50.888;4.466;2023-11-19T01:41:29;16.40;;;3.67;;
18445;SDS011;9352;50.888;4.466;2023-11-19T01:43:59;27.38;;;4.18;;
18445;SDS011;9352;50.888;4.466;2023-11-19T01:46:26;28.55;;;4.65;;
18445;SDS011;9352;50.888;4.466;2023-11-19T01:48:55;21.00;;;4.50;;
18445;SDS011;9352;50.888;4.466;2023-11-19T01:51:22;33.42;;;4.00;;
18445;SDS011;9352;50.888;4.466;2023-11-19T01:53:50;32.67;;;4.45;;
18445;SDS011;9352;50.888;4.466;2023-11-19T01:56:17;23.60;;;3.90;;
18445;SDS011;9352;50.888;4.466;2023-11-19T01:58:44;22.80;;;4.97;;
18445;SDS011;9352;50.888;4.466;2023-11-19T02:01:12;19.45;;;4.13;;
18445;SDS011;9352;50.888;4.466;2023-11-19T02:03:40;24.60;;;4.78;;
18445;SDS011;9352;50.888;4.466;2023-11-19T02:06:09;27.23;;;4.50;;
18445;SDS011;9352;50.888;4.466;2023-11-19T02:08:36;32.15;;;4.72;;
18445;SDS011;9352;50.888;4.466;2023-11-19T02:11:04;27.17;;;4.05;;
18445;SDS011;9352;50.888;4.466;2023-11-19T02:13:32;25.60;;;3.97;;
18445;SDS011;9352;50.888;4.466;2023-11-19T02:16:01;29.50;;;3.78;;
18445;SDS011;9352;50.888;4.466;2023-11-19T02:18:29;28.05;;;4.18;;
18445;SDS011;9352;50.888;4.466;2023-11-19T02:20:58;30.02;;;4.70;;
18445;SDS011;9352;50.888;4.466;2023-11-19T02:23:27;29.05;;;3.55;;
18445;SDS011;9352;50.888;4.466;2023-11-19T02:25:59;34.40;;;4.13;;
18445;SDS011;9352;50.888;4.466;2023-11-19T02:28:33;27.33;;;4.43;;
18445;SDS011;9352;50.888;4.466;2023-11-19T02:31:02;25.63;;;4.25;;
18445;SDS011;9352;50.888;4.466;2023-11-19T02:33:29;33.60;;;5.43;;
18445;SDS011;9352;50.888;4.466;2023-11-19T02:35:56;31.85;;;4.20;;
18445;SDS011;9352;50.888;4.466;2023-11-19T02:38:23;33.30;;;4.75;;
18445;SDS011;9352;50.888;4.466;2023-11-19T02:40:50;32.35;;;4.97;;
18445;SDS011;9352;50.888;4.466;2023-11-19T02:43:17;37.70;;;4.30;;
18445;SDS011;9352;50.888;4.466;2023-11-19T02:45:46;27.30;;;3.95;;
18445;SDS011;9352;50.888;4.466;2023-11-19T02:48:12;26.08;;;4.07;;
18445;SDS011;9352;50.888;4.466;2023-11-19T02:50:40;30.85;;;3.97;;
18445;SDS011;9352;50.888;4.466;2023-11-19T02:53:08;29.80;;;4.15;;
18445;SDS011;9352;50.888;4.466;2023-11-19T02:55:35;27.90;;;3.67;;
18445;SDS011;9352;50.888;4.466;2023-11-19T02:58:03;29.88;;;3.88;;
18445;SDS011;9352;50.888;4.466;2023-11-19T03:00:46;29.90;;;4.53;;
18445;SDS011;9352;50.888;4.466;2023-11-19T03:03:19;32.83;;;4.25;;
18445;SDS011;9352;50.888;4.466;2023-11-19T03:05:47;39.42;;;5.05;;
18445;SDS011;9352;50.888;4.466;2023-11-19T03:08:14;29.85;;;3.92;;
18445;SDS011;9352;50.888;4.466;2023-11-19T03:10:41;20.92;;;3.92;;
18445;SDS011;9352;50.888;4.466;2023-11-19T03:13:10;25.25;;;3.80;;
18445;SDS011;9352;50.888;4.466;2023-11-19T03:15:39;31.52;;;4.15;;
18445;SDS011;9352;50.888;4.466;2023-11-19T03:18:08;19.25;;;3.25;;
18445;SDS011;9352;50.888;4.466;2023-11-19T03:20:35;34.90;;;4.10;;
18445;SDS011;9352;50.888;4.466;2023-11-19T03:23:01;25.30;;;4.13;;
18445;SDS011;9352;50.888;4.466;2023-11-19T03:25:28;30.80;;;4.07;;
18445;SDS011;9352;50.888;4.466;2023-11-19T03:27:58;26.95;;;4.28;;
18445;SDS011;9352;50.888;4.466;2023-11-19T03:30:26;34.65;;;3.63;;
18445;SDS011;9352;50.888;4.466;2023-11-19T03:32:53;33.63;;;4.82;;
18445;SDS011;9352;50.888;4.466;2023-11-19T03:35:22;28.38;;;3.97;;
18445;SDS011;9352;50.888;4.466;2023-11-19T03:37:49;23.23;;;3.38;;
18445;SDS011;9352;50.888;4.466;2023-11-19T03:40:16;26.60;;;3.88;;
18445;SDS011;9352;50.888;4.466;2023-11-19T03:42:44;27.02;;;4.40;;
18445;SDS011;9352;50.888;4.466;2023-11-19T03:45:11;27.58;;;4.05;;
18445;SDS011;9352;50.888;4.466;2023-11-19T03:47:38;28.13;;;3.85;;
18445;SDS011;9352;50.888;4.466;2023-11-19T03:50:05;25.77;;;3.90;;
18445;SDS011;9352;50.888;4.466;2023-11-19T03:52:35;23.20;;;3.95;;
18445;SDS011;9352;50.888;4.466;2023-11-19T03:55:02;21.50;;;3.80;;
18445;SDS011;9352;50.888;4.466;2023-11-19T03:57:29;31.02;;;4.05;;
18445;SDS011;9352;50.888;4.466;2023-11-19T03:59:56;34.72;;;4.00;;
18445;SDS011;9352;50.888;4.466;2023-11-19T04:02:24;30.48;;;5.20;;
18445;SDS011;9352;50.888;4.466;2023-11-19T04:04:54;25.50;;;4.32;;
18445;SDS011;9352;50.888;4.466;2023-11-19T04:07:21;31.15;;;4.00;;
18445;SDS011;9352;50.888;4.466;2023-11-19T04:09:48;28.67;;;4.00;;
18445;SDS011;9352;50.888;4.466;2023-11-19T04:12:16;26.17;;;4.25;;
18445;SDS011;9352;50.888;4.466;2023-11-19T04:14:42;31.48;;;4.45;;
18445;SDS011;9352;50.888;4.466;2023-11-19T04:17:10;43.30;;;5.32;;
18445;SDS011;9352;50.888;4.466;2023-11-19T04:19:37;36.83;;;4.70;;
18445;SDS011;9352;50.888;4.466;2023-11-19T04:22:06;36.22;;;4.25;;
18445;SDS011;9352;50.888;4.466;2023-11-19T04:24:34;26.27;;;3.83;;
18445;SDS011;9352;50.888;4.466;2023-11-19T04:27:02;30.98;;;4.20;;
18445;SDS011;9352;50.888;4.466;2023-11-19T04:29:31;30.92;;;3.97;;
18445;SDS011;9352;50.888;4.466;2023-11-19T04:31:59;32.83;;;4.22;;
18445;SDS011;9352;50.888;4.466;2023-11-19T04:34:26;37.05;;;5.15;;
18445;SDS011;9352;50.888;4.466;2023-11-19T04:36:53;27.48;;;4.13;;
18445;SDS011;9352;50.888;4.466;2023-11-19T04:39:20;34.45;;;4.28;;
18445;SDS011;9352;50.888;4.466;2023-11-19T04:41:47;34.25;;;4.28;;
18445;SDS011;9352;50.888;4.466;2023-11-19T04:44:16;35.45;;;4.90;;
18445;SDS011;9352;50.888;4.466;2023-11-19T04:46:43;41.90;;;4.70;;
18445;SDS011;9352;50.888;4.466;2023-11-19T04:49:10;31.33;;;4.38;;
18445;SDS011;9352;50.888;4.466;2023-11-19T04:51:38;41.50;;;4.85;;
18445;SDS011;9352;50.888;4.466;2023-11-19T04:54:06;40.35;;;4.88;;
18445;SDS011;9352;50.888;4.466;2023-11-19T04:56:34;39.42;;;5.18;;
18445;SDS011;9352;50.888;4.466;2023-11-19T04:59:01;39.20;;;5.40;;
18445;SDS011;9352;50.888;4.466;2023-11-19T05:01:30;36.75;;;4.38;;
18445;SDS011;9352;50.888;4.466;2023-11-19T05:03:57;32.13;;;4.28;;
18445;SDS011;9352;50.888;4.466;2023-11-19T05:06:25;44.63;;;5.35;;
18445;SDS011;9352;50.888;4.466;2023-11-19T05:08:53;34.35;;;4.65;;
18445;SDS011;9352;50.888;4.466;2023-11-19T05:11:20;41.72;;;5.68;;
18445;SDS011;9352;50.888;4.466;2023-11-19T05:13:47;34.45;;;5.38;;
18445;SDS011;9352;50.888;4.466;2023-11-19T05:16:15;35.40;;;5.30;;
18445;SDS011;9352;50.888;4.466;2023-11-19T05:18:44;35.75;;;4.60;;
18445;SDS011;9352;50.888;4.466;2023-11-19T05:21:10;42.70;;;5.22;;
18445;SDS011;9352;50.888;4.466;2023-11-19T05:23:37;35.60;;;4.47;;
18445;SDS011;9352;50.888;4.466;2023-11-19T05:26:06;36.30;;;5.10;;
18445;SDS011;9352;50.888;4.466;2023-11-19T05:28:36;30.45;;;5.40;;
18445;SDS011;9352;50.888;4.466;2023-11-19T05:31:04;41.70;;;4.35;;
18445;SDS011;9352;50.888;4.466;2023-11-19T05:33:32;41.28;;;4.20;;
18445;SDS011;9352;50.888;4.466;2023-11-19T05:36:01;35.88;;;4.85;;
18445;SDS011;9352;50.888;4.466;2023-11-19T05:38:28;26.60;;;5.63;;
18445;SDS011;9352;50.888;4.466;2023-11-19T05:40:55;37.13;;;4.88;;
18445;SDS011;9352;50.888;4.466;2023-11-19T05:43:22;36.78;;;5.32;;
18445;SDS011;9352;50.888;4.466;2023-11-19T05:45:49;33.90;;;4.13;;
18445;SDS011;9352;50.888;4.466;2023-11-19T05:48:16;50.63;;;5.72;;
18445;SDS011;9352;50.888;4.466;2023-11-19T05:50:43;39.50;;;4.88;;
18445;SDS011;9352;50.888;4.466;2023-11-19T05:53:11;40.08;;;5.07;;
18445;SDS011;9352;50.888;4.466;2023-11-19T05:55:39;29.25;;;4.22;;
18445;SDS011;9352;50.888;4.466;2023-11-19T05:58:13;43.63;;;5.72;;
18445;SDS011;9352;50.888;4.466;2023-11-19T06:00:41;36.90;;;5.53;;
18445;SDS011;9352;50.888;4.466;2023-11-19T06:03:08;41.40;;;5.15;;
18445;SDS011;9352;50.888;4.466;2023-11-19T06:05:35;43.60;;;5.07;;
18445;SDS011;9352;50.888;4.466;2023-11-19T06:08:02;36.60;;;4.25;;
18445;SDS011;9352;50.888;4.466;2023-11-19T06:10:30;46.15;;;5.85;;
18445;SDS011;9352;50.888;4.466;2023-11-19T06:12:57;42.70;;;5.90;;
18445;SDS011;9352;50.888;4.466;2023-11-19T06:15:26;39.10;;;4.95;;
18445;SDS011;9352;50.888;4.466;2023-11-19T06:17:53;44.97;;;5.82;;
18445;SDS011;9352;50.888;4.466;2023-11-19T06:20:20;39.60;;;4.63;;
18445;SDS011;9352;50.888;4.466;2023-11-19T06:22:47;33.72;;;5.05;;
18445;SDS011;9352;50.888;4.466;2023-11-19T06:25:14;37.63;;;5.32;;
18445;SDS011;9352;50.888;4.466;2023-11-19T06:27:43;39.53;;;6.07;;
18445;SDS011;9352;50.888;4.466;2023-11-19T06:30:10;36.35;;;4.82;;
18445;SDS011;9352;50.888;4.466;2023-11-19T06:32:38;40.28;;;7.20;;
18445;SDS011;9352;50.888;4.466;2023-11-19T06:35:05;32.63;;;5.00;;
18445;SDS011;9352;50.888;4.466;2023-11-19T06:37:32;37.90;;;4.20;;
18445;SDS011;9352;50.888;4.466;2023-11-19T06:39:59;35.17;;;5.00;;
18445;SDS011;9352;50.888;4.466;2023-11-19T06:42:26;41.75;;;5.25;;
18445;SDS011;9352;50.888;4.466;2023-11-19T06:44:54;31.10;;;4.82;;
18445;SDS011;9352;50.888;4.466;2023-11-19T06:47:22;37.53;;;4.45;;
18445;SDS011;9352;50.888;4.466;2023-11-19T06:49:51;33.72;;;5.18;;
18445;SDS011;9352;50.888;4.466;2023-11-19T06:52:18;42.15;;;5.07;;
18445;SDS011;9352;50.888;4.466;2023-11-19T06:54:45;42.80;;;5.90;;
18445;SDS011;9352;50.888;4.466;2023-11-19T06:57:12;30.83;;;5.00;;
18445;SDS011;9352;50.888;4.466;2023-11-19T06:59:39;44.47;;;5.25;;
18445;SDS011;9352;50.888;4.466;2023-11-19T07:02:07;32.63;;;4.07;;
18445;SDS011;9352;50.888;4.466;2023-11-19T07:04:35;38.65;;;4.95;;
18445;SDS011;9352;50.888;4.466;2023-11-19T07:07:02;38.92;;;5.43;;
18445;SDS011;9352;50.888;4.466;2023-11-19T07:09:30;45.67;;;4.97;;
18445;SDS011;9352;50.888;4.466;2023-11-19T07:11:57;38.95;;;6.05;;
18445;SDS011;9352;50.888;4.466;2023-11-19T07:14:25;29.92;;;4.47;;
18445;SDS011;9352;50.888;4.466;2023-11-19T07:16:52;30.20;;;4.60;;
18445;SDS011;9352;50.888;4.466;2023-11-19T07:19:20;35.28;;;4.70;;
18445;SDS011;9352;50.888;4.466;2023-11-19T07:21:47;33.50;;;5.15;;
18445;SDS011;9352;50.888;4.466;2023-11-19T07:24:14;46.83;;;6.80;;
18445;SDS011;9352;50.888;4.466;2023-11-19T07:26:42;45.58;;;5.18;;
18445;SDS011;9352;50.888;4.466;2023-11-19T07:29:09;36.33;;;4.65;;
18445;SDS011;9352;50.888;4.466;2023-11-19T07:31:36;41.30;;;4.75;;
18445;SDS011;9352;50.888;4.466;2023-11-19T07:34:03;40.10;;;4.68;;
18445;SDS011;9352;50.888;4.466;2023-11-19T07:36:32;43.50;;;5.07;;
18445;SDS011;9352;50.888;4.466;2023-11-19T07:39:00;40.60;;;5.60;;
18445;SDS011;9352;50.888;4.466;2023-11-19T07:41:27;28.20;;;4.57;;
18445;SDS011;9352;50.888;4.466;2023-11-19T07:43:54;41.28;;;4.88;;
18445;SDS011;9352;50.888;4.466;2023-11-19T07:46:21;42.88;;;5.10;;
18445;SDS011;9352;50.888;4.466;2023-11-19T07:48:48;40.25;;;6.18;;
18445;SDS011;9352;50.888;4.466;2023-11-19T07:51:15;37.25;;;4.72;;
18445;SDS011;9352;50.888;4.466;2023-11-19T07:53:43;40.15;;;5.15;;
18445;SDS011;9352;50.888;4.466;2023-11-19T07:56:10;39.83;;;4.88;;
18445;SDS011;9352;50.888;4.466;2023-11-19T07:58:37;37.10;;;5.05;;
18445;SDS011;9352;50.888;4.466;2023-11-19T08:01:04;44.92;;;5.60;;
18445;SDS011;9352;50.888;4.466;2023-11-19T08:03:32;33.28;;;5.10;;
18445;SDS011;9352;50.888;4.466;2023-11-19T08:05:59;33.63;;;4.63;;
18445;SDS011;9352;50.888;4.466;2023-11-19T08:08:27;41.75;;;5.43;;
18445;SDS011;9352;50.888;4.466;2023-11-19T08:10:56;30.52;;;5.40;;
18445;SDS011;9352;50.888;4.466;2023-11-19T08:13:23;38.25;;;5.18;;
18445;SDS011;9352;50.888;4.466;2023-11-19T08:15:50;32.90;;;4.32;;
18445;SDS011;9352;50.888;4.466;2023-11-19T08:18:17;37.55;;;4.85;;
18445;SDS011;9352;50.888;4.466;2023-11-19T08:20:44;32.45;;;5.50;;
18445;SDS011;9352;50.888;4.466;2023-11-19T08:23:14;29.75;;;4.40;;
18445;SDS011;9352;50.888;4.466;2023-11-19T08:25:41;34.67;;;4.75;;
18445;SDS011;9352;50.888;4.466;2023-11-19T08:28:09;36.05;;;4.30;;
18445;SDS011;9352;50.888;4.466;2023-11-19T08:30:36;31.70;;;4.53;;
18445;SDS011;9352;50.888;4.466;2023-11-19T08:33:03;31.30;;;4.40;;
18445;SDS011;9352;50.888;4.466;2023-11-19T08:35:32;32.90;;;5.28;;
18445;SDS011;9352;50.888;4.466;2023-11-19T08:37:59;25.83;;;3.80;;
18445;SDS011;9352;50.888;4.466;2023-11-19T08:40:26;39.58;;;4.88;;
18445;SDS011;9352;50.888;4.466;2023-11-19T08:42:54;29.70;;;4.72;;
18445;SDS011;9352;50.888;4.466;2023-11-19T08:45:23;24.95;;;4.20;;
18445;SDS011;9352;50.888;4.466;2023-11-19T08:47:50;40.17;;;4.80;;
18445;SDS011;9352;50.888;4.466;2023-11-19T08:50:16;36.47;;;4.95;;
18445;SDS011;9352;50.888;4.466;2023-11-19T08:52:44;25.42;;;4.72;;
18445;SDS011;9352;50.888;4.466;2023-11-19T08:55:10;32.25;;;4.22;;
18445;SDS011;9352;50.888;4.466;2023-11-19T08:57:38;36.08;;;4.78;;
18445;SDS011;9352;50.888;4.466;2023-11-19T09:00:06;41.60;;;4.95;;
18445;SDS011;9352;50.888;4.466;2023-11-19T09:02:35;34.38;;;4.75;;
18445;SDS011;9352;50.888;4.466;2023-11-19T09:05:03;46.45;;;5.07;;
18445;SDS011;9352;50.888;4.466;2023-11-19T09:07:30;35.55;;;4.88;;
18445;SDS011;9352;50.888;4.466;2023-11-19T09:09:57;29.58;;;4.50;;
18445;SDS011;9352;50.888;4.466;2023-11-19T09:12:24;49.03;;;5.25;;
18445;SDS011;9352;50.888;4.466;2023-11-19T09:14:51;46.35;;;5.22;;
18445;SDS011;9352;50.888;4.466;2023-11-19T09:17:18;31.45;;;4.32;;
18445;SDS011;9352;50.888;4.466;2023-11-19T09:19:46;35.05;;;4.38;;
18445;SDS011;9352;50.888;4.466;2023-11-19T09:22:13;30.95;;;4.70;;
18445;SDS011;9352;50.888;4.466;2023-11-19T09:24:40;27.42;;;4.32;;
18445;SDS011;9352;50.888;4.466;2023-11-19T09:27:09;29.88;;;4.10;;
18445;SDS011;9352;50.888;4.466;2023-11-19T09:29:36;23.35;;;4.35;;
18445;SDS011;9352;50.888;4.466;2023-11-19T09:32:03;20.10;;;3.80;;
18445;SDS011;9352;50.888;4.466;2023-11-19T09:34:31;29.85;;;4.78;;
18445;SDS011;9352;50.888;4.466;2023-11-19T09:36:59;25.02;;;4.40;;
18445;SDS011;9352;50.888;4.466;2023-11-19T09:39:27;27.35;;;3.55;;
18445;SDS011;9352;50.888;4.466;2023-11-19T09:41:54;23.70;;;3.90;;
18445;SDS011;9352;50.888;4.466;2023-11-19T09:44:22;31.88;;;4.35;;
18445;SDS011;9352;50.888;4.466;2023-11-19T09:46:50;24.83;;;4.45;;
18445;SDS011;9352;50.888;4.466;2023-11-19T09:49:18;27.52;;;4.40;;
18445;SDS011;9352;50.888;4.466;2023-11-19T09:51:49;28.17;;;4.00;;
18445;SDS011;9352;50.888;4.466;2023-11-19T09:54:17;30.23;;;3.80;;
18445;SDS011;9352;50.888;4.466;2023-11-19T09:56:44;26.30;;;3.80;;
18445;SDS011;9352;50.888;4.466;2023-11-19T09:59:12;29.13;;;4.55;;
18445;SDS011;9352;50.888;4.466;2023-11-19T10:01:39;18.58;;;3.55;;
18445;SDS011;9352;50.888;4.466;2023-11-19T10:04:06;19.40;;;3.80;;
18445;SDS011;9352;50.888;4.466;2023-11-19T10:06:33;25.52;;;4.03;;
18445;SDS011;9352;50.888;4.466;2023-11-19T10:09:00;18.48;;;3.63;;
18445;SDS011;9352;50.888;4.466;2023-11-19T10:11:31;22.52;;;3.80;;
18445;SDS011;9352;50.888;4.466;2023-11-19T10:13:58;27.67;;;3.63;;
18445;SDS011;9352;50.888;4.466;2023-11-19T10:16:28;22.42;;;4.28;;
18445;SDS011;9352;50.888;4.466;2023-11-19T10:18:56;24.77;;;4.43;;
18445;SDS011;9352;50.888;4.466;2023-11-19T10:21:23;32.22;;;4.97;;
18445;SDS011;9352;50.888;4.466;2023-11-19T10:23:53;26.60;;;4.93;;
18445;SDS011;9352;50.888;4.466;2023-11-19T10:26:22;19.30;;;4.22;;
18445;SDS011;9352;50.888;4.466;2023-11-19T10:28:50;27.17;;;3.75;;
18445;SDS011;9352;50.888;4.466;2023-11-19T10:31:18;33.97;;;4.85;;
18445;SDS011;9352;50.888;4.466;2023-11-19T10:33:49;29.85;;;4.50;;
18445;SDS011;9352;50.888;4.466;2023-11-19T10:36:17;29.33;;;4.65;;
18445;SDS011;9352;50.888;4.466;2023-11-19T10:38:51;26.13;;;4.20;;
18445;SDS011;9352;50.888;4.466;2023-11-19T10:41:28;29.98;;;4.13;;
18445;SDS011;9352;50.888;4.466;2023-11-19T10:43:57;21.95;;;4.10;;
18445;SDS011;9352;50.888;4.466;2023-11-19T10:46:23;24.50;;;3.88;;
18445;SDS011;9352;50.888;4.466;2023-11-19T10:49:03;27.63;;;4.40;;
18445;SDS011;9352;50.888;4.466;2023-11-19T10:51:31;27.45;;;3.83;;
18445;SDS011;9352;50.888;4.466;2023-11-19T10:53:59;27.92;;;4.00;;
18445;SDS011;9352;50.888;4.466;2023-11-19T10:56:29;26.23;;;4.35;;
18445;SDS011;9352;50.888;4.466;2023-11-19T10:59:00;21.00;;;4.07;;
18445;SDS011;9352;50.888;4.466;2023-11-19T11:01:31;21.88;;;4.03;;
18445;SDS011;9352;50.888;4.466;2023-11-19T11:04:03;19.30;;;3.65;;
18445;SDS011;9352;50.888;4.466;2023-11-19T11:06:31;19.20;;;3.90;;
18445;SDS011;9352;50.888;4.466;2023-11-19T11:09:01;23.25;;;3.72;;
18445;SDS011;9352;50.888;4.466;2023-11-19T11:11:29;28.88;;;4.15;;
18445;SDS011;9352;50.888;4.466;2023-11-19T11:13:56;20.02;;;3.75;;
18445;SDS011;9352;50.888;4.466;2023-11-19T11:16:28;24.45;;;4.07;;
18445;SDS011;9352;50.888;4.466;2023-11-19T11:18:56;27.48;;;4.53;;
18445;SDS011;9352;50.888;4.466;2023-11-19T11:21:24;32.03;;;5.10;;
18445;SDS011;9352;50.888;4.466;2023-11-19T11:24:00;29.45;;;4.28;;
18445;SDS011;9352;50.888;4.466;2023-11-19T11:26:47;27.83;;;3.88;;
18445;SDS011;9352;50.888;4.466;2023-11-19T11:29:28;29.38;;;4.53;;
18445;SDS011;9352;50.888;4.466;2023-11-19T11:32:07;23.05;;;4.07;;
18445;SDS011;9352;50.888;4.466;2023-11-19T11:34:50;33.70;;;4.15;;
18445;SDS011;9352;50.888;4.466;2023-11-19T11:37:29;25.52;;;4.28;;
18445;SDS011;9352;50.888;4.466;2023-11-19T11:40:00;28.00;;;4.55;;
18445;SDS011;9352;50.888;4.466;2023-11-19T11:42:31;25.52;;;4.65;;
18445;SDS011;9352;50.888;4.466;2023-11-19T11:45:03;30.83;;;4.45;;
18445;SDS011;9352;50.888;4.466;2023-11-19T11:50:52;29.00;;;4.18;;
18445;SDS011;9352;50.888;4.466;2023-11-19T11:53:21;39.38;;;4.03;;
18445;SDS011;9352;50.888;4.466;2023-11-19T11:55:53;31.90;;;4.57;;
18445;SDS011;9352;50.888;4.466;2023-11-19T11:58:21;22.65;;;4.32;;
18445;SDS011;9352;50.888;4.466;2023-11-19T12:00:52;30.52;;;5.00;;
18445;SDS011;9352;50.888;4.466;2023-11-19T12:03:20;36.20;;;5.78;;
18445;SDS011;9352;50.888;4.466;2023-11-19T12:05:47;19.60;;;3.63;;
18445;SDS011;9352;50.888;4.466;2023-11-19T12:08:15;24.70;;;4.13;;
18445;SDS011;9352;50.888;4.466;2023-11-19T12:10:46;33.78;;;4.75;;
18445;SDS011;9352;50.888;4.466;2023-11-19T12:13:14;28.98;;;3.90;;
18445;SDS011;9352;50.888;4.466;2023-11-19T12:18:38;21.00;;;4.40;;
18445;SDS011;9352;50.888;4.466;2023-11-19T12:21:07;25.48;;;4.03;;
18445;SDS011;9352;50.888;4.466;2023-11-19T12:23:35;21.90;;;4.05;;
18445;SDS011;9352;50.888;4.466;2023-11-19T12:29:01;20.90;;;3.17;;
18445;SDS011;9352;50.888;4.466;2023-11-19T12:31:32;19.85;;;3.45;;
18445;SDS011;9352;50.888;4.466;2023-11-19T12:34:08;20.35;;;3.60;;
18445;SDS011;9352;50.888;4.466;2023-11-19T12:36:37;26.73;;;4.18;;
18445;SDS011;9352;50.888;4.466;2023-11-19T12:39:06;22.75;;;3.78;;
18445;SDS011;9352;50.888;4.466;2023-11-19T12:41:33;26.45;;;4.03;;
18445;SDS011;9352;50.888;4.466;2023-11-19T12:44:16;23.38;;;3.67;;
18445;SDS011;9352;50.888;4.466;2023-11-19T12:46:44;23.98;;;3.97;;
18445;SDS011;9352;50.888;4.466;2023-11-19T12:49:11;27.17;;;4.47;;
18445;SDS011;9352;50.888;4.466;2023-11-19T12:51:38;33.97;;;4.25;;
18445;SDS011;9352;50.888;4.466;2023-11-19T12:54:06;26.13;;;4.20;;
18445;SDS011;9352;50.888;4.466;2023-11-19T12:56:33;29.42;;;3.97;;
18445;SDS011;9352;50.888;4.466;2023-11-19T12:59:09;25.33;;;4.07;;
18445;SDS011;9352;50.888;4.466;2023-11-19T13:01:37;21.15;;;3.70;;
18445;SDS011;9352;50.888;4.466;2023-11-19T13:04:16;26.58;;;4.88;;
18445;SDS011;9352;50.888;4.466;2023-11-19T13:06:44;23.27;;;4.32;;
18445;SDS011;9352;50.888;4.466;2023-11-19T13:09:21;32.40;;;4.55;;
18445;SDS011;9352;50.888;4.466;2023-11-19T13:11:48;27.83;;;4.32;;
18445;SDS011;9352;50.888;4.466;2023-11-19T13:14:15;28.10;;;4.00;;
18445;SDS011;9352;50.888;4.466;2023-11-19T13:16:42;34.63;;;4.75;;
18445;SDS011;9352;50.888;4.466;2023-11-19T13:19:10;31.73;;;4.20;;
18445;SDS011;9352;50.888;4.466;2023-11-19T13:21:39;28.02;;;4.55;;
18445;SDS011;9352;50.888;4.466;2023-11-19T13:24:06;18.75;;;3.80;;
18445;SDS011;9352;50.888;4.466;2023-11-19T13:26:33;27.42;;;4.13;;
18445;SDS011;9352;50.888;4.466;2023-11-19T13:29:00;30.77;;;4.25;;
18445;SDS011;9352;50.888;4.466;2023-11-19T13:31:26;22.42;;;3.60;;
18445;SDS011;9352;50.888;4.466;2023-11-19T13:33:53;21.23;;;3.60;;
18445;SDS011;9352;50.888;4.466;2023-11-19T13:36:21;21.13;;;3.72;;
18445;SDS011;9352;50.888;4.466;2023-11-19T13:38:50;21.58;;;3.80;;
18445;SDS011;9352;50.888;4.466;2023-11-19T13:41:16;27.80;;;4.40;;
18445;SDS011;9352;50.888;4.466;2023-11-19T13:43:43;23.42;;;4.40;;
18445;SDS011;9352;50.888;4.466;2023-11-19T13:46:10;22.83;;;4.07;;
18445;SDS011;9352;50.888;4.466;2023-11-19T13:48:37;23.55;;;3.65;;
18445;SDS011;9352;50.888;4.466;2023-11-19T13:51:04;29.70;;;4.63;;
18445;SDS011;9352;50.888;4.466;2023-11-19T13:53:32;24.25;;;3.92;;
18445;SDS011;9352;50.888;4.466;2023-11-19T13:56:00;30.75;;;4.28;;
18445;SDS011;9352;50.888;4.466;2023-11-19T13:58:27;31.00;;;4.82;;
18445;SDS011;9352;50.888;4.466;2023-11-19T14:00:54;30.10;;;5.28;;
18445;SDS011;9352;50.888;4.466;2023-11-19T14:03:21;24.73;;;4.03;;
18445;SDS011;9352;50.888;4.466;2023-11-19T14:05:47;26.05;;;4.57;;
18445;SDS011;9352;50.888;4.466;2023-11-19T14:08:17;29.52;;;4.53;;
18445;SDS011;9352;50.888;4.466;2023-11-19T14:10:44;28.80;;;4.22;;
18445;SDS011;9352;50.888;4.466;2023-11-19T14:13:12;28.58;;;4.40;;
18445;SDS011;9352;50.888;4.466;2023-11-19T14:15:40;30.52;;;4.32;;
18445;SDS011;9352;50.888;4.466;2023-11-19T14:18:07;36.28;;;4.95;;
18445;SDS011;9352;50.888;4.466;2023-11-19T14:20:34;22.35;;;3.60;;
18445;SDS011;9352;50.888;4.466;2023-11-19T14:23:02;25.42;;;4.82;;
18445;SDS011;9352;50.888;4.466;2023-11-19T14:25:29;39.03;;;5.45;;
18445;SDS011;9352;50.888;4.466;2023-11-19T14:27:56;28.58;;;4.45;;
18445;SDS011;9352;50.888;4.466;2023-11-19T14:30:24;30.17;;;4.22;;
18445;SDS011;9352;50.888;4.466;2023-11-19T14:32:52;33.17;;;4.57;;
18445;SDS011;9352;50.888;4.466;2023-11-19T14:35:19;40.90;;;5.13;;
18445;SDS011;9352;50.888;4.466;2023-11-19T14:37:46;27.30;;;4.20;;
18445;SDS011;9352;50.888;4.466;2023-11-19T14:40:13;31.67;;;4.18;;
18445;SDS011;9352;50.888;4.466;2023-11-19T14:42:39;43.13;;;4.80;;
18445;SDS011;9352;50.888;4.466;2023-11-19T14:45:07;40.22;;;5.03;;
18445;SDS011;9352;50.888;4.466;2023-11-19T14:47:38;36.10;;;4.82;;
18445;SDS011;9352;50.888;4.466;2023-11-19T14:50:05;28.30;;;3.92;;
18445;SDS011;9352;50.888;4.466;2023-11-19T14:52:34;31.45;;;4.78;;
18445;SDS011;9352;50.888;4.466;2023-11-19T14:55:01;38.75;;;5.22;;
18445;SDS011;9352;50.888;4.466;2023-11-19T14:57:29;24.15;;;3.83;;
18445;SDS011;9352;50.888;4.466;2023-11-19T14:59:56;30.95;;;4.70;;
18445;SDS011;9352;50.888;4.466;2023-11-19T15:02:22;32.50;;;4.72;;